• Join FlightAware (Why Join?)
  • Login
  • US Flag 
05:17AM EDT


 

Airport Tracker/Info


-or-


 

Live Flight TrackerFlight Track Log ✈ SWA127 ✈ 08-Apr-2013 ✈ KPIT - KMCO

Flight Track Log - Related Links

Times and Time Zones

All times are in EDT time to prevent confusion due to time zone crossing. See the SWA127 flight status page for this flight to view local times or setup timezone preferences in your user account.

Time Position Orientation Groundspeed Altitude Reporting Facility
EDT Latitude Longitude Course Direction KTS MPH feet Rate Location/Type
06:37AM 40.4692 -80.1928 160° South 166 191 2,600  Level FAA TRACON SMA TRACON (SMA)
06:37AM 40.4547 -80.1858 160° South 196 226 3,100 2,100 Climbing FAA TRACON SMA TRACON (SMA)
06:38AM 40.4314 -80.1867 182° South 223 257 4,000 2,520 Climbing FAA TRACON SMA TRACON (SMA)
06:38AM 40.4139 -80.1869 181° South 233 268 4,800 2,700 Climbing FAA TRACON SMA TRACON (SMA)
06:38AM 40.3894 -80.1900 185° South 251 289 5,800 3,120 Climbing FAA TRACON SMA TRACON (SMA)
06:39AM 40.3608 -80.1931 185° South 270 311 6,900 3,420 Climbing FAA TRACON SMA TRACON (SMA)
06:39AM 40.3367 -80.1944 183° South 279 321 8,100 3,720 Climbing FAA TRACON SMA TRACON (SMA)
06:39AM 40.3125 -80.1953 182° South 277 319 9,400 4,200 Climbing FAA TRACON SMA TRACON (SMA)
06:40AM 40.2831 -80.1972 183° South 276 318 10,900 3,420 Climbing FAA TRACON SMA TRACON (SMA)
06:40AM 40.2594 -80.1994 184° South 276 318 11,700 2,400 Climbing FAA TRACON SMA TRACON (SMA)
06:40AM 40.2347 -80.2017 184° South 284 327 12,500 2,220 Climbing FAA TRACON SMA TRACON (SMA)
06:41AM 40.2028 -80.2042 183° South 300 345 13,200 2,220 Climbing FAA TRACON SMA TRACON (SMA)
06:41AM 40.1728 -80.2064 183° South 332 382 14,000 2,100 Climbing FAA TRACON SMA TRACON (SMA)
06:41AM 40.1436 -80.2081 183° South 344 396 14,600 2,100 Climbing FAA TRACON SMA TRACON (SMA)
06:42AM 40.1056 -80.2108 183° South 365 420 15,400 2,160 Climbing FAA TRACON SMA TRACON (SMA)
06:42AM 40.0742 -80.2136 184° South 375 432 16,100 2,400 Climbing FAA TRACON SMA TRACON (SMA)
06:42AM 40.0419 -80.2158 183° South 374 430 17,000 2,880 Climbing FAA TRACON SMA TRACON (SMA)
06:43AM 40.0022 -80.2186 183° South 374 430 18,000 2,820 Climbing FAA TRACON SMA TRACON (SMA)
06:43AM 39.9700 -80.2211 183° South 374 430 18,900 2,520 Climbing FAA TRACON SMA TRACON (SMA)
06:43AM 39.9381 -80.2236 183° South 374 430 19,700 2,340 Climbing FAA TRACON SMA TRACON (SMA)
06:44AM 39.8978 -80.2267 183° South 376 433 20,500 2,220 Climbing FAA TRACON SMA TRACON (SMA)
06:44AM 39.8647 -80.2292 183° South 381 438 21,200 2,100 Climbing FAA TRACON SMA TRACON (SMA)
06:44AM 39.8314 -80.2314 183° South 385 443 21,900 2,400 Climbing FAA TRACON SMA TRACON (SMA)
06:45AM 39.7897 -80.2342 183° South 389 448 22,800 2,100 Climbing FAA TRACON SMA TRACON (SMA)
06:45AM 39.7561 -80.2364 183° South 392 451 23,300 1,200 Climbing FAA TRACON SMA TRACON (SMA)
06:45AM 39.7414 -80.2347 175° South 387 445 23,500 1,560 Climbing Cleveland Center
06:47AM 39.5842 -80.2447 183° South 392 451 25,700 1,500 Climbing Washington Center
06:48AM 39.4631 -80.2556 184° South 415 478 27,000 1,740 Climbing Washington Center
06:49AM 39.3397 -80.2639 183° South 434 499 29,200 2,160 Climbing Washington Center
06:50AM 39.2244 -80.2753 184° South 434 499 31,400 1,380 Climbing Washington Center
06:51AM 39.1106 -80.3106 194° South 429 494 32,000 480 Climbing Washington Center
06:52AM 38.9967 -80.3461 194° South 424 488 32,400 1,200 Climbing Washington Center
06:53AM 38.8850 -80.3761 192° South 424 488 34,400 1,500 Climbing Washington Center
06:54AM 38.7731 -80.4089 193° South 418 481 35,400 780 Climbing Washington Center
06:55AM 38.6567 -80.4492 195° South 423 487 36,000 300 Climbing Washington Center
06:56AM 38.5575 -80.4797 194° South 423 487 36,000  Level Washington Center
06:57AM 38.4436 -80.5119 192° South 423 487 36,000  Level Washington Center
06:58AM 38.3319 -80.5417 192° South 418 481 36,000 -300 Level Washington Center
06:59AM 38.2039 -80.5594 186° South 418 481 35,400 -540 Descending Washington Center
07:00AM 38.0886 -80.5756 186° South 418 481 35,000 -240 Descending Washington Center
07:01AM 37.9708 -80.5942 187° South 424 488 35,000  Level Washington Center
07:02AM 37.8533 -80.6100 186° South 430 495 35,000  Level Washington Center
07:04AM 37.5669 -80.6486 186° South 420 483 35,000  Level Atlanta Center
07:05AM 37.4547 -80.6642 186° South 420 483 35,000  Level Atlanta Center
07:06AM 37.3406 -80.6819 187° South 420 483 35,000  Level Atlanta Center
07:07AM 37.2389 -80.6942 185° South 420 483 35,000  Level Atlanta Center
07:08AM 37.1267 -80.7094 186° South 420 483 35,000  Level Atlanta Center
07:09AM 37.0103 -80.7247 186° South 420 483 35,000  Level Atlanta Center
07:10AM 36.8856 -80.7350 184° South 420 483 35,000  Level Atlanta Center
07:11AM 36.7692 -80.7478 185° South 420 483 35,000  Level Atlanta Center
07:12AM 36.6692 -80.7569 184° South 415 478 35,000  Level Atlanta Center
07:13AM 36.5528 -80.7694 185° South 415 478 35,000  Level Atlanta Center
07:14AM 36.4364 -80.7819 185° South 423 487 35,000  Level Atlanta Center
07:15AM 36.3200 -80.7972 186° South 423 487 35,000  Level Atlanta Center
07:16AM 36.1931 -80.8100 185° South 423 487 35,000  Level Atlanta Center
07:17AM 36.0744 -80.8222 185° South 423 487 35,000  Level Atlanta Center
07:18AM 35.9581 -80.8347 185° South 423 487 35,000  Level Atlanta Center
07:19AM 35.8417 -80.8469 185° South 423 487 35,000 480 Level Atlanta Center
07:20AM 35.7272 -80.8592 185° South 423 487 36,000 480 Climbing Atlanta Center
07:21AM 35.6086 -80.8714 185° South 423 487 36,000  Level Atlanta Center
07:22AM 35.5044 -80.8831 185° South 423 487 36,000  Level Atlanta Center
07:23AM 35.3881 -80.8950 185° South 423 487 36,000  Level Atlanta Center
07:24AM 35.2508 -80.9106 185° South 423 487 36,000  Level Atlanta Center
07:26AM 35.0019 -80.9386 185° South 421 484 36,000  Level Jacksonville Center
07:27AM 34.8833 -80.9517 185° South 421 484 36,000  Level Jacksonville Center
07:28AM 34.7583 -80.9644 185° South 421 484 36,000  Level Jacksonville Center
07:29AM 34.6397 -80.9747 184° South 421 484 36,000  Level Jacksonville Center
07:30AM 34.5231 -80.9875 185° South 426 490 36,000  Level Jacksonville Center
07:31AM 34.4083 -80.9975 184° South 421 484 36,000  Level Jacksonville Center
07:32AM 34.2897 -81.0125 186° South 421 484 36,000  Level Jacksonville Center
07:33AM 34.1794 -81.0250 185° South 416 479 36,000  Level Jacksonville Center
07:34AM 34.0606 -81.0350 184° South 423 487 36,000  Level Jacksonville Center
07:35AM 33.9439 -81.0450 184° South 423 487 36,000  Level Jacksonville Center
07:36AM 33.8250 -81.0550 184° South 423 487 36,000  Level Jacksonville Center
07:37AM 33.7231 -81.0672 186° South 423 487 36,000  Level Jacksonville Center
07:38AM 33.6000 -81.0772 184° South 428 493 36,000  Level Jacksonville Center
07:39AM 33.4833 -81.0869 184° South 428 493 36,000  Level Jacksonville Center
07:40AM 33.3667 -81.0994 185° South 428 493 36,000  Level Jacksonville Center
07:41AM 33.2456 -81.1067 183° South 428 493 36,000  Level Jacksonville Center
07:42AM 33.1269 -81.1192 185° South 428 493 36,000  Level Jacksonville Center
07:43AM 33.0103 -81.1289 184° South 428 493 36,000  Level Jacksonville Center
07:44AM 32.8892 -81.1386 184° South 428 493 36,000  Level Jacksonville Center
07:45AM 32.7683 -81.1483 184° South 428 493 36,000  Level Jacksonville Center
07:46AM 32.6536 -81.1606 185° South 428 493 36,000  Level Jacksonville Center
07:47AM 32.5222 -81.1728 184° South 428 493 36,000  Level Jacksonville Center
07:48AM 32.4011 -81.1678 178° South 423 487 36,000  Level Jacksonville Center
07:49AM 32.2883 -81.1650 179° South 433 498 36,000  Level Jacksonville Center
07:50AM 32.1672 -81.1647 180° South 440 506 36,000  Level Jacksonville Center
07:51AM 32.0442 -81.1597 178° South 440 506 36,000  Level Jacksonville Center
07:52AM 31.9250 -81.1594 180° South 440 506 36,000  Level Jacksonville Center
07:53AM 31.7933 -81.1547 178° South 432 497 36,000  Level Jacksonville Center
07:54AM 31.6744 -81.1544 180° South 437 503 36,000  Level Jacksonville Center
07:55AM 31.5636 -81.1517 179° South 442 509 36,000  Level Jacksonville Center
07:56AM 31.4322 -81.1467 178° South 444 511 36,000 -60 Level Jacksonville Center
07:57AM 31.3089 -81.1467 180° South 444 511 35,900 -600 Descending Jacksonville Center
07:58AM 31.1858 -81.1467 180° South 444 511 34,900 -960 Descending Jacksonville Center
07:59AM 31.0625 -81.1439 179° South 437 503 34,000 -540 Descending Jacksonville Center
08:00AM 30.9414 -81.1414 179° South 437 503 33,900  Descending Jacksonville Center
08:01AM 30.8244 -81.1386 179° South 437 503 34,000  Climbing Jacksonville Center
08:02AM 30.7033 -81.1361 179° South 437 503 34,000  Level Jacksonville Center
08:03AM 30.5800 -81.1361 180° South 437 503 34,000  Level Jacksonville Center
08:04AM 30.4547 -81.1333 179° South 442 509 34,000  Level Jacksonville Center
08:05AM 30.3336 -81.1308 179° South 442 509 34,000  Level Jacksonville Center
08:06AM 30.2083 -81.1308 180° South 442 509 34,000  Level Jacksonville Center
08:07AM 30.0853 -81.1258 178° South 442 509 34,000 -1,200 Level Jacksonville Center
08:08AM 29.9619 -81.1256 180° South 442 509 31,600 -2,460 Descending Jacksonville Center
08:09AM 29.8408 -81.1231 179° South 442 509 29,100 -2,460 Descending Jacksonville Center
08:10AM 29.7239 -81.1228 180° South 432 497 26,700 -2,400 Descending Jacksonville Center
08:11AM 29.6111 -81.1200 179° South 420 483 24,300 -2,400 Descending Jacksonville Center
08:12AM 29.5025 -81.1197 180° South 403 464 22,000 -2,160 Descending Jacksonville Center
08:13AM 29.4025 -81.1192 180° South 385 443 20,000 -2,100 Descending Jacksonville Center
08:14AM 29.3000 -81.1139 177° South 375 432 17,800 -2,160 Descending Jacksonville Center
08:15AM 29.1997 -81.1083 177° South 370 426 15,700 -2,160 Descending Jacksonville Center
08:16AM 29.1036 -81.0983 175° South 359 413 13,500 -1,860 Descending Jacksonville Center
08:17AM 29.0097 -81.1047 183° South 348 400 12,000 -1,560 Descending Jacksonville Center
08:18AM 28.9286 -81.1133 185° South 330 380 10,400 -1,620 Descending Jacksonville Center
08:19AM 28.8431 -81.1244 186° South 317 365 8,800 -1,740 Descending Jacksonville Center
08:20AM 28.7706 -81.1683 208° Southwest 298 343 7,000 -1,620 Descending Jacksonville Center
08:21AM 28.7086 -81.2119 212° Southwest 287 330 5,600 -1,380 Descending Jacksonville Center
08:22AM 28.6467 -81.2531 210° Southwest 267 307 4,300 -1,200 Descending Jacksonville Center
08:23AM 28.5908 -81.2944 213° Southwest 254 292 3,300 -1,020 Descending Jacksonville Center
08:24AM 28.5364 -81.2975 183° South 212 244 2,300 -1,020 Descending Jacksonville Center
08:26AM 28.4833 -81.3000 182° South 132 152 1,100 -840 Descending Orlando TRACON
08:27AM 28.4500 -81.3000 180° South 130 150 400 -660 Descending Orlando TRACON
08:29AM 28.4294 -81.3090 180° South  Level Estimated
08:36AM 28.4294 -81.3090 180° South  Level Estimated
08:37AM 28.4294 -81.3090 180° South  Level Estimated
08:38AM 28.4294 -81.3090 180° South  Level Estimated